sensor_id;sensor_type;location;lat;lon;timestamp;P1;durP1;ratioP1;P2;durP2;ratioP2
38083;SDS011;23894;51.466;7.444;2022-07-29T00:00:59;12.32;;;4.30;;
38083;SDS011;23894;51.466;7.444;2022-07-29T00:03:01;7.93;;;2.95;;
38083;SDS011;23894;51.466;7.444;2022-07-29T00:05:02;10.35;;;3.83;;
38083;SDS011;23894;51.466;7.444;2022-07-29T00:07:04;14.35;;;3.28;;
38083;SDS011;23894;51.466;7.444;2022-07-29T00:11:05;7.80;;;2.60;;
38083;SDS011;23894;51.466;7.444;2022-07-29T00:13:06;14.50;;;3.50;;
38083;SDS011;23894;51.466;7.444;2022-07-29T00:15:06;10.07;;;3.25;;
38083;SDS011;23894;51.466;7.444;2022-07-29T00:17:07;8.75;;;2.65;;
38083;SDS011;23894;51.466;7.444;2022-07-29T00:21:08;7.57;;;2.33;;
38083;SDS011;23894;51.466;7.444;2022-07-29T00:23:09;8.95;;;2.60;;
38083;SDS011;23894;51.466;7.444;2022-07-29T00:27:11;7.28;;;1.80;;
38083;SDS011;23894;51.466;7.444;2022-07-29T00:31:13;10.17;;;2.37;;
38083;SDS011;23894;51.466;7.444;2022-07-29T00:33:13;8.02;;;2.22;;
38083;SDS011;23894;51.466;7.444;2022-07-29T00:37:33;11.18;;;2.17;;
38083;SDS011;23894;51.466;7.444;2022-07-29T00:41:34;5.43;;;1.97;;
38083;SDS011;23894;51.466;7.444;2022-07-29T00:43:35;7.30;;;2.30;;
38083;SDS011;23894;51.466;7.444;2022-07-29T00:47:36;5.43;;;1.93;;
38083;SDS011;23894;51.466;7.444;2022-07-29T00:49:36;7.47;;;1.83;;
38083;SDS011;23894;51.466;7.444;2022-07-29T00:51:39;6.70;;;2.15;;
38083;SDS011;23894;51.466;7.444;2022-07-29T00:53:40;5.75;;;1.83;;
38083;SDS011;23894;51.466;7.444;2022-07-29T00:55:41;7.75;;;2.10;;
38083;SDS011;23894;51.466;7.444;2022-07-29T00:59:43;5.57;;;1.85;;
38083;SDS011;23894;51.466;7.444;2022-07-29T01:01:44;6.07;;;1.83;;
38083;SDS011;23894;51.466;7.444;2022-07-29T01:05:45;5.53;;;1.77;;
38083;SDS011;23894;51.466;7.444;2022-07-29T01:07:46;7.78;;;2.20;;
38083;SDS011;23894;51.466;7.444;2022-07-29T01:09:49;7.53;;;2.00;;
38083;SDS011;23894;51.466;7.444;2022-07-29T01:11:50;6.88;;;1.90;;
38083;SDS011;23894;51.466;7.444;2022-07-29T01:13:51;6.35;;;1.95;;
38083;SDS011;23894;51.466;7.444;2022-07-29T01:15:59;7.47;;;2.15;;
38083;SDS011;23894;51.466;7.444;2022-07-29T01:18:07;8.38;;;2.38;;
38083;SDS011;23894;51.466;7.444;2022-07-29T01:20:25;8.77;;;2.20;;
38083;SDS011;23894;51.466;7.444;2022-07-29T01:22:56;15.07;;;2.40;;
38083;SDS011;23894;51.466;7.444;2022-07-29T01:25:11;6.55;;;1.90;;
38083;SDS011;23894;51.466;7.444;2022-07-29T01:29:21;6.78;;;2.42;;
38083;SDS011;23894;51.466;7.444;2022-07-29T01:31:33;6.35;;;2.15;;
38083;SDS011;23894;51.466;7.444;2022-07-29T01:33:52;7.03;;;2.22;;
38083;SDS011;23894;51.466;7.444;2022-07-29T01:35:59;6.18;;;2.00;;
38083;SDS011;23894;51.466;7.444;2022-07-29T01:38:11;8.55;;;2.15;;
38083;SDS011;23894;51.466;7.444;2022-07-29T01:40:36;5.18;;;2.00;;
38083;SDS011;23894;51.466;7.444;2022-07-29T01:42:41;5.60;;;2.03;;
38083;SDS011;23894;51.466;7.444;2022-07-29T01:44:56;7.10;;;1.95;;
38083;SDS011;23894;51.466;7.444;2022-07-29T01:47:02;7.20;;;2.15;;
38083;SDS011;23894;51.466;7.444;2022-07-29T01:49:24;5.53;;;1.90;;
38083;SDS011;23894;51.466;7.444;2022-07-29T01:51:30;5.75;;;1.92;;
38083;SDS011;23894;51.466;7.444;2022-07-29T01:53:37;5.88;;;1.80;;
38083;SDS011;23894;51.466;7.444;2022-07-29T01:55:47;7.68;;;1.95;;
38083;SDS011;23894;51.466;7.444;2022-07-29T01:57:49;7.10;;;2.45;;
38083;SDS011;23894;51.466;7.444;2022-07-29T01:59:51;7.70;;;2.35;;
38083;SDS011;23894;51.466;7.444;2022-07-29T02:01:54;6.78;;;2.20;;
38083;SDS011;23894;51.466;7.444;2022-07-29T02:03:57;6.63;;;2.10;;
38083;SDS011;23894;51.466;7.444;2022-07-29T02:06:00;7.85;;;2.20;;
38083;SDS011;23894;51.466;7.444;2022-07-29T02:08:03;6.68;;;1.75;;
38083;SDS011;23894;51.466;7.444;2022-07-29T02:10:05;5.90;;;2.05;;
38083;SDS011;23894;51.466;7.444;2022-07-29T02:12:08;7.50;;;2.40;;
38083;SDS011;23894;51.466;7.444;2022-07-29T02:14:10;7.22;;;2.13;;
38083;SDS011;23894;51.466;7.444;2022-07-29T02:16:13;5.35;;;2.15;;
38083;SDS011;23894;51.466;7.444;2022-07-29T02:18:17;9.10;;;2.40;;
38083;SDS011;23894;51.466;7.444;2022-07-29T02:20:18;7.70;;;2.05;;
38083;SDS011;23894;51.466;7.444;2022-07-29T02:24:21;8.85;;;2.30;;
38083;SDS011;23894;51.466;7.444;2022-07-29T02:26:23;6.68;;;2.03;;
38083;SDS011;23894;51.466;7.444;2022-07-29T02:28:26;8.60;;;2.33;;
38083;SDS011;23894;51.466;7.444;2022-07-29T02:30:28;8.70;;;2.40;;
38083;SDS011;23894;51.466;7.444;2022-07-29T02:32:30;8.38;;;2.20;;
38083;SDS011;23894;51.466;7.444;2022-07-29T02:34:32;6.75;;;2.33;;
38083;SDS011;23894;51.466;7.444;2022-07-29T02:36:34;5.65;;;2.50;;
38083;SDS011;23894;51.466;7.444;2022-07-29T02:40:51;6.63;;;2.30;;
38083;SDS011;23894;51.466;7.444;2022-07-29T02:42:53;5.70;;;2.13;;
38083;SDS011;23894;51.466;7.444;2022-07-29T02:44:54;7.70;;;2.30;;
38083;SDS011;23894;51.466;7.444;2022-07-29T02:49:37;5.60;;;2.22;;
38083;SDS011;23894;51.466;7.444;2022-07-29T02:51:44;7.82;;;2.28;;
38083;SDS011;23894;51.466;7.444;2022-07-29T02:53:50;7.45;;;2.60;;
38083;SDS011;23894;51.466;7.444;2022-07-29T02:55:55;7.22;;;2.40;;
38083;SDS011;23894;51.466;7.444;2022-07-29T03:00:05;5.60;;;2.30;;
38083;SDS011;23894;51.466;7.444;2022-07-29T03:02:08;6.70;;;2.17;;
38083;SDS011;23894;51.466;7.444;2022-07-29T03:04:11;6.10;;;2.40;;
38083;SDS011;23894;51.466;7.444;2022-07-29T03:06:13;6.93;;;2.17;;
38083;SDS011;23894;51.466;7.444;2022-07-29T03:08:16;9.95;;;3.60;;
38083;SDS011;23894;51.466;7.444;2022-07-29T03:12:18;6.30;;;3.40;;
38083;SDS011;23894;51.466;7.444;2022-07-29T03:14:19;8.07;;;3.10;;
38083;SDS011;23894;51.466;7.444;2022-07-29T03:18:22;7.90;;;2.35;;
38083;SDS011;23894;51.466;7.444;2022-07-29T03:22:23;9.13;;;2.80;;
38083;SDS011;23894;51.466;7.444;2022-07-29T03:24:25;6.32;;;2.30;;
38083;SDS011;23894;51.466;7.444;2022-07-29T03:26:27;7.75;;;2.75;;
38083;SDS011;23894;51.466;7.444;2022-07-29T03:30:29;10.48;;;2.80;;
38083;SDS011;23894;51.466;7.444;2022-07-29T03:32:30;8.90;;;3.10;;
38083;SDS011;23894;51.466;7.444;2022-07-29T03:36:31;5.33;;;2.40;;
38083;SDS011;23894;51.466;7.444;2022-07-29T03:40:35;5.88;;;2.20;;
38083;SDS011;23894;51.466;7.444;2022-07-29T03:42:42;6.80;;;2.55;;
38083;SDS011;23894;51.466;7.444;2022-07-29T03:44:45;6.63;;;2.60;;
38083;SDS011;23894;51.466;7.444;2022-07-29T03:46:48;10.65;;;3.08;;
38083;SDS011;23894;51.466;7.444;2022-07-29T03:48:50;9.02;;;2.83;;
38083;SDS011;23894;51.466;7.444;2022-07-29T03:50:56;7.60;;;2.30;;
38083;SDS011;23894;51.466;7.444;2022-07-29T03:54:57;8.23;;;2.30;;
38083;SDS011;23894;51.466;7.444;2022-07-29T03:58:59;6.00;;;2.38;;
38083;SDS011;23894;51.466;7.444;2022-07-29T04:01:02;8.65;;;2.80;;
38083;SDS011;23894;51.466;7.444;2022-07-29T04:07:11;6.55;;;2.53;;
38083;SDS011;23894;51.466;7.444;2022-07-29T04:09:13;7.65;;;2.60;;
38083;SDS011;23894;51.466;7.444;2022-07-29T04:13:14;6.37;;;2.30;;
38083;SDS011;23894;51.466;7.444;2022-07-29T04:17:15;7.17;;;2.50;;
38083;SDS011;23894;51.466;7.444;2022-07-29T04:21:16;10.20;;;2.57;;
38083;SDS011;23894;51.466;7.444;2022-07-29T04:25:17;9.47;;;2.53;;
38083;SDS011;23894;51.466;7.444;2022-07-29T04:29:18;4.90;;;2.10;;
38083;SDS011;23894;51.466;7.444;2022-07-29T04:31:19;7.75;;;2.42;;
38083;SDS011;23894;51.466;7.444;2022-07-29T04:35:21;6.73;;;2.50;;
38083;SDS011;23894;51.466;7.444;2022-07-29T04:39:22;5.60;;;2.43;;
38083;SDS011;23894;51.466;7.444;2022-07-29T04:43:23;7.57;;;2.40;;
38083;SDS011;23894;51.466;7.444;2022-07-29T04:47:24;6.67;;;2.03;;
38083;SDS011;23894;51.466;7.444;2022-07-29T04:51:25;7.77;;;2.73;;
38083;SDS011;23894;51.466;7.444;2022-07-29T04:55:26;8.13;;;2.10;;
38083;SDS011;23894;51.466;7.444;2022-07-29T04:59:27;10.43;;;2.20;;
38083;SDS011;23894;51.466;7.444;2022-07-29T05:03:28;12.70;;;2.30;;
38083;SDS011;23894;51.466;7.444;2022-07-29T05:07:30;7.43;;;2.07;;
38083;SDS011;23894;51.466;7.444;2022-07-29T05:11:32;6.45;;;2.17;;
38083;SDS011;23894;51.466;7.444;2022-07-29T05:15:33;6.20;;;2.20;;
38083;SDS011;23894;51.466;7.444;2022-07-29T05:17:34;6.05;;;2.25;;
38083;SDS011;23894;51.466;7.444;2022-07-29T05:21:35;8.70;;;1.90;;
38083;SDS011;23894;51.466;7.444;2022-07-29T05:25:36;7.70;;;2.20;;
38083;SDS011;23894;51.466;7.444;2022-07-29T05:29:37;6.33;;;2.10;;
38083;SDS011;23894;51.466;7.444;2022-07-29T05:33:38;6.40;;;2.67;;
38083;SDS011;23894;51.466;7.444;2022-07-29T05:37:40;5.57;;;2.70;;
38083;SDS011;23894;51.466;7.444;2022-07-29T05:39:41;9.02;;;2.80;;
38083;SDS011;23894;51.466;7.444;2022-07-29T05:43:42;8.17;;;2.70;;
38083;SDS011;23894;51.466;7.444;2022-07-29T05:47:43;6.37;;;2.80;;
38083;SDS011;23894;51.466;7.444;2022-07-29T05:51:44;7.23;;;2.63;;
38083;SDS011;23894;51.466;7.444;2022-07-29T05:55:45;7.23;;;2.90;;
38083;SDS011;23894;51.466;7.444;2022-07-29T05:59:46;9.00;;;3.17;;
38083;SDS011;23894;51.466;7.444;2022-07-29T06:03:47;8.25;;;3.00;;
38083;SDS011;23894;51.466;7.444;2022-07-29T06:07:48;7.80;;;3.10;;
38083;SDS011;23894;51.466;7.444;2022-07-29T06:11:49;8.33;;;2.73;;
38083;SDS011;23894;51.466;7.444;2022-07-29T06:15:50;8.83;;;2.60;;
38083;SDS011;23894;51.466;7.444;2022-07-29T06:19:52;8.68;;;3.38;;
38083;SDS011;23894;51.466;7.444;2022-07-29T06:23:53;7.77;;;3.17;;
38083;SDS011;23894;51.466;7.444;2022-07-29T06:27:54;13.27;;;3.17;;
38083;SDS011;23894;51.466;7.444;2022-07-29T06:31:56;6.32;;;2.60;;
38083;SDS011;23894;51.466;7.444;2022-07-29T06:33:56;7.65;;;2.90;;
38083;SDS011;23894;51.466;7.444;2022-07-29T06:37:57;9.50;;;2.67;;
38083;SDS011;23894;51.466;7.444;2022-07-29T06:42:17;6.97;;;2.83;;
38083;SDS011;23894;51.466;7.444;2022-07-29T06:46:19;10.77;;;3.00;;
38083;SDS011;23894;51.466;7.444;2022-07-29T06:48:20;7.78;;;3.10;;
38083;SDS011;23894;51.466;7.444;2022-07-29T06:52:21;7.73;;;2.43;;
38083;SDS011;23894;51.466;7.444;2022-07-29T06:54:22;10.50;;;2.83;;
38083;SDS011;23894;51.466;7.444;2022-07-29T06:56:22;6.53;;;2.58;;
38083;SDS011;23894;51.466;7.444;2022-07-29T07:00:24;9.37;;;2.93;;
38083;SDS011;23894;51.466;7.444;2022-07-29T07:04:25;11.32;;;2.95;;
38083;SDS011;23894;51.466;7.444;2022-07-29T07:06:26;8.13;;;2.80;;
38083;SDS011;23894;51.466;7.444;2022-07-29T07:10:27;6.63;;;2.43;;
38083;SDS011;23894;51.466;7.444;2022-07-29T07:14:28;8.13;;;2.37;;
38083;SDS011;23894;51.466;7.444;2022-07-29T07:16:28;6.65;;;2.60;;
38083;SDS011;23894;51.466;7.444;2022-07-29T07:20:29;11.43;;;2.97;;
38083;SDS011;23894;51.466;7.444;2022-07-29T07:24:31;7.33;;;2.83;;
38083;SDS011;23894;51.466;7.444;2022-07-29T07:26:31;7.90;;;2.63;;
38083;SDS011;23894;51.466;7.444;2022-07-29T07:30:32;7.67;;;2.90;;
38083;SDS011;23894;51.466;7.444;2022-07-29T07:32:33;8.40;;;2.60;;
38083;SDS011;23894;51.466;7.444;2022-07-29T07:36:34;7.18;;;2.38;;
38083;SDS011;23894;51.466;7.444;2022-07-29T07:38:35;8.55;;;2.65;;
38083;SDS011;23894;51.466;7.444;2022-07-29T07:42:37;7.72;;;2.28;;
38083;SDS011;23894;51.466;7.444;2022-07-29T07:44:39;8.48;;;2.65;;
38083;SDS011;23894;51.466;7.444;2022-07-29T07:46:39;6.55;;;2.83;;
38083;SDS011;23894;51.466;7.444;2022-07-29T09:38:30;10.03;;;3.57;;
38083;SDS011;23894;51.466;7.444;2022-07-29T09:40:31;9.63;;;3.60;;
38083;SDS011;23894;51.466;7.444;2022-07-29T09:42:33;8.40;;;3.28;;
38083;SDS011;23894;51.466;7.444;2022-07-29T09:44:40;11.73;;;3.72;;
38083;SDS011;23894;51.466;7.444;2022-07-29T09:47:01;7.55;;;3.35;;
38083;SDS011;23894;51.466;7.444;2022-07-29T09:49:11;12.05;;;3.95;;
38083;SDS011;23894;51.466;7.444;2022-07-29T09:51:18;10.90;;;3.70;;
38083;SDS011;23894;51.466;7.444;2022-07-29T09:53:42;11.00;;;3.40;;
38083;SDS011;23894;51.466;7.444;2022-07-29T09:57:48;9.23;;;3.50;;
38083;SDS011;23894;51.466;7.444;2022-07-29T10:02:22;10.18;;;3.72;;
38083;SDS011;23894;51.466;7.444;2022-07-29T10:04:42;11.55;;;3.88;;
38083;SDS011;23894;51.466;7.444;2022-07-29T10:06:54;15.10;;;4.72;;
38083;SDS011;23894;51.466;7.444;2022-07-29T10:09:07;15.55;;;4.22;;
38083;SDS011;23894;51.466;7.444;2022-07-29T10:13:12;14.77;;;3.90;;
38083;SDS011;23894;51.466;7.444;2022-07-29T10:15:15;11.27;;;4.05;;
38083;SDS011;23894;51.466;7.444;2022-07-29T10:17:16;10.13;;;4.35;;
38083;SDS011;23894;51.466;7.444;2022-07-29T10:19:19;9.77;;;4.38;;
38083;SDS011;23894;51.466;7.444;2022-07-29T10:21:23;11.98;;;4.35;;
38083;SDS011;23894;51.466;7.444;2022-07-29T10:23:25;9.10;;;4.53;;
38083;SDS011;23894;51.466;7.444;2022-07-29T10:25:27;10.98;;;4.32;;
38083;SDS011;23894;51.466;7.444;2022-07-29T10:27:28;10.65;;;4.32;;
38083;SDS011;23894;51.466;7.444;2022-07-29T10:29:29;7.70;;;4.05;;
38083;SDS011;23894;51.466;7.444;2022-07-29T10:34:02;8.38;;;4.30;;
38083;SDS011;23894;51.466;7.444;2022-07-29T10:36:38;11.48;;;4.88;;
38083;SDS011;23894;51.466;7.444;2022-07-29T10:39:14;9.65;;;4.68;;
38083;SDS011;23894;51.466;7.444;2022-07-29T10:41:56;9.07;;;4.15;;
38083;SDS011;23894;51.466;7.444;2022-07-29T10:44:16;12.20;;;4.93;;
38083;SDS011;23894;51.466;7.444;2022-07-29T10:46:21;11.57;;;5.65;;
38083;SDS011;23894;51.466;7.444;2022-07-29T10:48:24;12.80;;;5.65;;
38083;SDS011;23894;51.466;7.444;2022-07-29T10:50:25;10.95;;;5.63;;
38083;SDS011;23894;51.466;7.444;2022-07-29T10:55:01;10.70;;;4.43;;
38083;SDS011;23894;51.466;7.444;2022-07-29T10:57:13;13.07;;;5.00;;
38083;SDS011;23894;51.466;7.444;2022-07-29T11:01:29;13.13;;;5.47;;
38083;SDS011;23894;51.466;7.444;2022-07-29T11:03:47;13.43;;;5.20;;
38083;SDS011;23894;51.466;7.444;2022-07-29T11:05:54;11.25;;;4.50;;
38083;SDS011;23894;51.466;7.444;2022-07-29T11:10:19;8.50;;;4.93;;
38083;SDS011;23894;51.466;7.444;2022-07-29T11:14:55;13.02;;;4.78;;
38083;SDS011;23894;51.466;7.444;2022-07-29T11:17:01;8.85;;;4.75;;
38083;SDS011;23894;51.466;7.444;2022-07-29T11:19:22;16.20;;;5.13;;
38083;SDS011;23894;51.466;7.444;2022-07-29T11:21:36;10.50;;;4.32;;
38083;SDS011;23894;51.466;7.444;2022-07-29T11:23:43;8.27;;;4.15;;
38083;SDS011;23894;51.466;7.444;2022-07-29T11:28:22;8.45;;;4.10;;
38083;SDS011;23894;51.466;7.444;2022-07-29T11:30:45;10.00;;;4.75;;
38083;SDS011;23894;51.466;7.444;2022-07-29T11:32:50;10.43;;;5.18;;
38083;SDS011;23894;51.466;7.444;2022-07-29T11:35:10;14.82;;;5.78;;
38083;SDS011;23894;51.466;7.444;2022-07-29T11:37:14;10.38;;;4.90;;
38083;SDS011;23894;51.466;7.444;2022-07-29T11:39:26;9.27;;;4.55;;
38083;SDS011;23894;51.466;7.444;2022-07-29T11:41:29;9.38;;;4.28;;
38083;SDS011;23894;51.466;7.444;2022-07-29T11:43:45;11.13;;;4.60;;
38083;SDS011;23894;51.466;7.444;2022-07-29T11:45:46;10.18;;;5.15;;
38083;SDS011;23894;51.466;7.444;2022-07-29T11:49:49;12.60;;;5.75;;
38083;SDS011;23894;51.466;7.444;2022-07-29T11:51:57;11.75;;;4.63;;
38083;SDS011;23894;51.466;7.444;2022-07-29T11:54:01;15.48;;;5.70;;
38083;SDS011;23894;51.466;7.444;2022-07-29T11:56:03;15.63;;;5.50;;
38083;SDS011;23894;51.466;7.444;2022-07-29T11:58:09;11.48;;;4.97;;
38083;SDS011;23894;51.466;7.444;2022-07-29T12:00:20;10.65;;;4.53;;
38083;SDS011;23894;51.466;7.444;2022-07-29T12:02:26;8.57;;;3.95;;
38083;SDS011;23894;51.466;7.444;2022-07-29T12:04:52;11.30;;;3.88;;
38083;SDS011;23894;51.466;7.444;2022-07-29T12:06:57;8.93;;;3.97;;
38083;SDS011;23894;51.466;7.444;2022-07-29T12:08:58;6.80;;;3.10;;
38083;SDS011;23894;51.466;7.444;2022-07-29T12:11:00;10.52;;;3.53;;
38083;SDS011;23894;51.466;7.444;2022-07-29T12:13:03;8.48;;;3.70;;
38083;SDS011;23894;51.466;7.444;2022-07-29T12:15:12;7.47;;;3.45;;
38083;SDS011;23894;51.466;7.444;2022-07-29T12:17:29;10.25;;;3.55;;
38083;SDS011;23894;51.466;7.444;2022-07-29T12:19:44;10.23;;;3.28;;
38083;SDS011;23894;51.466;7.444;2022-07-29T12:21:52;11.35;;;3.42;;
38083;SDS011;23894;51.466;7.444;2022-07-29T12:23:56;10.27;;;3.38;;
38083;SDS011;23894;51.466;7.444;2022-07-29T12:25:58;6.90;;;2.95;;
38083;SDS011;23894;51.466;7.444;2022-07-29T12:28:03;8.65;;;3.50;;
38083;SDS011;23894;51.466;7.444;2022-07-29T12:30:11;10.98;;;3.55;;
38083;SDS011;23894;51.466;7.444;2022-07-29T12:32:13;11.30;;;3.67;;
38083;SDS011;23894;51.466;7.444;2022-07-29T12:34:15;7.05;;;3.20;;
38083;SDS011;23894;51.466;7.444;2022-07-29T12:36:17;11.68;;;3.38;;
38083;SDS011;23894;51.466;7.444;2022-07-29T12:38:18;6.47;;;2.78;;
38083;SDS011;23894;51.466;7.444;2022-07-29T12:40:20;8.80;;;3.83;;
38083;SDS011;23894;51.466;7.444;2022-07-29T12:42:24;9.50;;;3.80;;
38083;SDS011;23894;51.466;7.444;2022-07-29T12:44:24;12.20;;;3.95;;
38083;SDS011;23894;51.466;7.444;2022-07-29T12:46:43;8.52;;;3.67;;
38083;SDS011;23894;51.466;7.444;2022-07-29T12:48:49;10.15;;;3.53;;
38083;SDS011;23894;51.466;7.444;2022-07-29T12:50:55;12.30;;;3.80;;
38083;SDS011;23894;51.466;7.444;2022-07-29T12:53:10;11.80;;;3.80;;
38083;SDS011;23894;51.466;7.444;2022-07-29T12:55:13;8.98;;;3.80;;
38083;SDS011;23894;51.466;7.444;2022-07-29T12:57:45;9.57;;;3.63;;
38083;SDS011;23894;51.466;7.444;2022-07-29T13:02:21;10.38;;;3.63;;
38083;SDS011;23894;51.466;7.444;2022-07-29T13:04:29;8.43;;;3.50;;
38083;SDS011;23894;51.466;7.444;2022-07-29T13:06:38;10.45;;;3.63;;
38083;SDS011;23894;51.466;7.444;2022-07-29T13:08:52;8.68;;;3.53;;
38083;SDS011;23894;51.466;7.444;2022-07-29T13:11:05;11.35;;;4.30;;
38083;SDS011;23894;51.466;7.444;2022-07-29T13:13:09;11.98;;;4.03;;
38083;SDS011;23894;51.466;7.444;2022-07-29T13:15:12;11.23;;;4.15;;
38083;SDS011;23894;51.466;7.444;2022-07-29T13:17:22;12.10;;;4.18;;
38083;SDS011;23894;51.466;7.444;2022-07-29T13:19:32;10.30;;;4.45;;
38083;SDS011;23894;51.466;7.444;2022-07-29T13:22:05;7.30;;;3.50;;
38083;SDS011;23894;51.466;7.444;2022-07-29T13:24:07;9.70;;;3.40;;
38083;SDS011;23894;51.466;7.444;2022-07-29T13:26:08;7.80;;;3.88;;
38083;SDS011;23894;51.466;7.444;2022-07-29T13:28:09;8.23;;;3.75;;
38083;SDS011;23894;51.466;7.444;2022-07-29T13:30:11;12.40;;;4.63;;
38083;SDS011;23894;51.466;7.444;2022-07-29T13:32:12;7.72;;;4.32;;
38083;SDS011;23894;51.466;7.444;2022-07-29T13:34:13;11.55;;;4.30;;
38083;SDS011;23894;51.466;7.444;2022-07-29T13:36:13;7.50;;;3.58;;
38083;SDS011;23894;51.466;7.444;2022-07-29T13:38:14;9.77;;;3.80;;
38083;SDS011;23894;51.466;7.444;2022-07-29T13:40:15;8.85;;;3.92;;
38083;SDS011;23894;51.466;7.444;2022-07-29T13:42:15;7.18;;;3.72;;
38083;SDS011;23894;51.466;7.444;2022-07-29T13:44:17;8.13;;;3.40;;
38083;SDS011;23894;51.466;7.444;2022-07-29T13:46:17;8.25;;;3.50;;
38083;SDS011;23894;51.466;7.444;2022-07-29T13:48:19;9.75;;;3.72;;
38083;SDS011;23894;51.466;7.444;2022-07-29T13:50:20;7.97;;;3.47;;
38083;SDS011;23894;51.466;7.444;2022-07-29T13:52:21;8.35;;;3.50;;
38083;SDS011;23894;51.466;7.444;2022-07-29T13:54:23;7.47;;;3.03;;
38083;SDS011;23894;51.466;7.444;2022-07-29T13:56:25;9.48;;;3.20;;
38083;SDS011;23894;51.466;7.444;2022-07-29T13:58:27;11.52;;;3.67;;
38083;SDS011;23894;51.466;7.444;2022-07-29T14:00:30;7.13;;;3.35;;
38083;SDS011;23894;51.466;7.444;2022-07-29T14:02:31;8.60;;;3.22;;
38083;SDS011;23894;51.466;7.444;2022-07-29T14:04:35;8.45;;;3.13;;
38083;SDS011;23894;51.466;7.444;2022-07-29T14:06:36;7.00;;;3.20;;
38083;SDS011;23894;51.466;7.444;2022-07-29T14:08:38;8.18;;;3.22;;
38083;SDS011;23894;51.466;7.444;2022-07-29T14:10:40;8.63;;;3.33;;
38083;SDS011;23894;51.466;7.444;2022-07-29T14:12:40;7.30;;;3.47;;
38083;SDS011;23894;51.466;7.444;2022-07-29T14:14:42;7.20;;;2.97;;
38083;SDS011;23894;51.466;7.444;2022-07-29T14:16:44;6.97;;;2.97;;
38083;SDS011;23894;51.466;7.444;2022-07-29T14:18:45;8.45;;;3.20;;
38083;SDS011;23894;51.466;7.444;2022-07-29T14:20:45;8.45;;;3.03;;
38083;SDS011;23894;51.466;7.444;2022-07-29T14:22:46;8.63;;;2.80;;
38083;SDS011;23894;51.466;7.444;2022-07-29T14:24:47;7.57;;;3.08;;
38083;SDS011;23894;51.466;7.444;2022-07-29T14:26:47;9.90;;;2.90;;
38083;SDS011;23894;51.466;7.444;2022-07-29T14:28:49;6.35;;;2.65;;
38083;SDS011;23894;51.466;7.444;2022-07-29T14:30:52;9.57;;;3.05;;
38083;SDS011;23894;51.466;7.444;2022-07-29T14:32:54;8.55;;;2.45;;
38083;SDS011;23894;51.466;7.444;2022-07-29T14:34:55;6.38;;;2.75;;
38083;SDS011;23894;51.466;7.444;2022-07-29T14:36:55;7.63;;;3.00;;
38083;SDS011;23894;51.466;7.444;2022-07-29T14:38:59;9.18;;;2.90;;
38083;SDS011;23894;51.466;7.444;2022-07-29T14:41:00;7.65;;;3.08;;
38083;SDS011;23894;51.466;7.444;2022-07-29T14:43:01;7.60;;;2.50;;
38083;SDS011;23894;51.466;7.444;2022-07-29T14:45:03;7.30;;;2.63;;
38083;SDS011;23894;51.466;7.444;2022-07-29T14:47:06;9.88;;;3.20;;
38083;SDS011;23894;51.466;7.444;2022-07-29T14:49:07;8.10;;;3.22;;
38083;SDS011;23894;51.466;7.444;2022-07-29T14:51:09;9.52;;;2.80;;
38083;SDS011;23894;51.466;7.444;2022-07-29T14:53:11;6.53;;;2.78;;
38083;SDS011;23894;51.466;7.444;2022-07-29T14:55:13;8.55;;;2.90;;
38083;SDS011;23894;51.466;7.444;2022-07-29T14:57:13;11.18;;;3.03;;
38083;SDS011;23894;51.466;7.444;2022-07-29T14:59:16;8.95;;;2.95;;
38083;SDS011;23894;51.466;7.444;2022-07-29T15:01:16;9.30;;;3.05;;
38083;SDS011;23894;51.466;7.444;2022-07-29T15:03:18;6.55;;;2.83;;
38083;SDS011;23894;51.466;7.444;2022-07-29T15:05:20;9.15;;;2.80;;
38083;SDS011;23894;51.466;7.444;2022-07-29T15:07:21;9.50;;;2.83;;
38083;SDS011;23894;51.466;7.444;2022-07-29T15:09:21;11.20;;;3.40;;
38083;SDS011;23894;51.466;7.444;2022-07-29T15:11:22;8.10;;;3.17;;
38083;SDS011;23894;51.466;7.444;2022-07-29T15:13:22;7.35;;;3.47;;
38083;SDS011;23894;51.466;7.444;2022-07-29T15:15:23;6.82;;;2.90;;
38083;SDS011;23894;51.466;7.444;2022-07-29T15:17:24;8.20;;;2.90;;
38083;SDS011;23894;51.466;7.444;2022-07-29T15:19:25;7.07;;;2.85;;
38083;SDS011;23894;51.466;7.444;2022-07-29T15:21:26;9.25;;;2.80;;
38083;SDS011;23894;51.466;7.444;2022-07-29T15:23:28;8.23;;;3.28;;
38083;SDS011;23894;51.466;7.444;2022-07-29T15:25:29;9.02;;;3.17;;
38083;SDS011;23894;51.466;7.444;2022-07-29T15:27:29;9.20;;;3.05;;
38083;SDS011;23894;51.466;7.444;2022-07-29T15:29:32;8.85;;;3.20;;
38083;SDS011;23894;51.466;7.444;2022-07-29T15:31:32;11.63;;;3.25;;
38083;SDS011;23894;51.466;7.444;2022-07-29T15:33:33;7.70;;;2.90;;
38083;SDS011;23894;51.466;7.444;2022-07-29T15:35:33;7.72;;;2.85;;
38083;SDS011;23894;51.466;7.444;2022-07-29T15:37:34;8.82;;;2.80;;
38083;SDS011;23894;51.466;7.444;2022-07-29T15:39:35;5.95;;;2.50;;
38083;SDS011;23894;51.466;7.444;2022-07-29T15:41:37;8.38;;;2.75;;
38083;SDS011;23894;51.466;7.444;2022-07-29T15:43:37;8.27;;;3.00;;
38083;SDS011;23894;51.466;7.444;2022-07-29T15:45:43;8.00;;;2.90;;
38083;SDS011;23894;51.466;7.444;2022-07-29T15:48:05;10.45;;;3.17;;
38083;SDS011;23894;51.466;7.444;2022-07-29T15:50:07;8.00;;;3.38;;
38083;SDS011;23894;51.466;7.444;2022-07-29T15:52:13;7.80;;;2.92;;
38083;SDS011;23894;51.466;7.444;2022-07-29T15:54:13;9.20;;;3.10;;
38083;SDS011;23894;51.466;7.444;2022-07-29T15:56:16;8.13;;;3.20;;
38083;SDS011;23894;51.466;7.444;2022-07-29T15:58:16;8.45;;;2.80;;
38083;SDS011;23894;51.466;7.444;2022-07-29T16:00:17;7.28;;;2.50;;
38083;SDS011;23894;51.466;7.444;2022-07-29T16:02:18;10.25;;;3.20;;
38083;SDS011;23894;51.466;7.444;2022-07-29T16:04:19;6.82;;;2.55;;
38083;SDS011;23894;51.466;7.444;2022-07-29T16:06:20;7.20;;;3.08;;
38083;SDS011;23894;51.466;7.444;2022-07-29T16:08:21;8.63;;;2.38;;
38083;SDS011;23894;51.466;7.444;2022-07-29T16:10:22;9.10;;;2.78;;
38083;SDS011;23894;51.466;7.444;2022-07-29T16:12:22;9.10;;;2.70;;
38083;SDS011;23894;51.466;7.444;2022-07-29T16:14:23;6.53;;;2.60;;
38083;SDS011;23894;51.466;7.444;2022-07-29T16:16:24;9.10;;;2.85;;
38083;SDS011;23894;51.466;7.444;2022-07-29T16:18:25;6.15;;;2.78;;
38083;SDS011;23894;51.466;7.444;2022-07-29T16:20:25;8.88;;;2.70;;
38083;SDS011;23894;51.466;7.444;2022-07-29T16:22:26;7.35;;;2.70;;
38083;SDS011;23894;51.466;7.444;2022-07-29T16:24:26;8.27;;;2.65;;
38083;SDS011;23894;51.466;7.444;2022-07-29T16:26:28;11.43;;;3.03;;
38083;SDS011;23894;51.466;7.444;2022-07-29T16:28:29;9.05;;;2.78;;
38083;SDS011;23894;51.466;7.444;2022-07-29T16:30:30;7.80;;;2.88;;
38083;SDS011;23894;51.466;7.444;2022-07-29T16:32:30;9.65;;;2.58;;
38083;SDS011;23894;51.466;7.444;2022-07-29T16:34:31;9.25;;;3.28;;
38083;SDS011;23894;51.466;7.444;2022-07-29T16:36:31;9.05;;;2.60;;
38083;SDS011;23894;51.466;7.444;2022-07-29T16:38:32;6.38;;;2.58;;
38083;SDS011;23894;51.466;7.444;2022-07-29T16:40:32;8.30;;;3.33;;
38083;SDS011;23894;51.466;7.444;2022-07-29T16:42:33;8.95;;;3.40;;
38083;SDS011;23894;51.466;7.444;2022-07-29T16:44:34;10.27;;;3.65;;
38083;SDS011;23894;51.466;7.444;2022-07-29T16:46:35;7.53;;;2.97;;
38083;SDS011;23894;51.466;7.444;2022-07-29T16:48:36;8.35;;;2.97;;
38083;SDS011;23894;51.466;7.444;2022-07-29T16:50:39;9.48;;;3.92;;
38083;SDS011;23894;51.466;7.444;2022-07-29T16:52:41;11.20;;;5.28;;
38083;SDS011;23894;51.466;7.444;2022-07-29T16:54:41;8.60;;;3.40;;
38083;SDS011;23894;51.466;7.444;2022-07-29T16:56:42;11.50;;;5.40;;
38083;SDS011;23894;51.466;7.444;2022-07-29T16:58:42;10.60;;;4.20;;
38083;SDS011;23894;51.466;7.444;2022-07-29T17:00:43;8.68;;;3.45;;
38083;SDS011;23894;51.466;7.444;2022-07-29T17:02:44;10.57;;;3.80;;